Time;durP1;ratioP1;P1;durP2;ratioP2;P2;SDS_P1;SDS_P2;PMS_P1;PMS_P2;Temp;Humidity;BMP_temperature;BMP_pressure;BME280_temperature;BME280_humidity;BME280_pressure;Samples;Min_cycle;Max_cycle;Signal;HPM_P1;HPM_P2
2022/09/03 00:01:24;;;;;;;4.65;2.00;;;18.50;53.30;;;;;;5009079;28;20048;-75
2022/09/03 00:04:02;;;;;;;2.20;0.98;;;18.40;53.10;;;;;;5009060;28;20057;-75
2022/09/03 00:06:41;;;;;;;4.47;1.15;;;18.40;53.10;;;;;;5009305;28;20432;-75
2022/09/03 00:09:18;;;;;;;4.32;1.05;;;18.40;53.30;;;;;;5008890;28;20050;-74
2022/09/03 00:12:11;;;;;;;4.38;0.95;;;18.30;53.80;;;;;;5008836;28;20521;-75
2022/09/03 00:14:50;;;;;;;5.13;0.90;;;18.30;54.30;;;;;;5008879;28;20042;-75
2022/09/03 00:17:26;;;;;;;1.35;0.90;;;18.20;54.00;;;;;;5008821;28;20046;-76
2022/09/03 00:20:17;;;;;;;1.88;1.02;;;18.20;54.50;;;;;;5008732;28;20115;-76
2022/09/03 00:22:50;;;;;;;2.92;1.00;;;18.20;54.40;;;;;;5008557;28;20148;-76
2022/09/03 00:25:43;;;;;;;2.20;1.17;;;18.10;54.10;;;;;;5008905;28;20046;-75
2022/09/03 00:28:17;;;;;;;1.77;0.90;;;18.10;54.50;;;;;;5008778;28;20312;-75
2022/09/03 00:30:43;;;;;;;;;;;18.10;54.50;;;;;;5009278;28;20050;-76
2022/09/03 00:33:18;;;;;;;3.95;1.35;;;18.00;54.10;;;;;;5008902;28;19940;-75
2022/09/03 00:35:53;;;;;;;3.30;0.90;;;18.00;54.30;;;;;;5008507;28;20502;-75
2022/09/03 00:38:21;;;;;;;2.67;1.15;;;18.00;54.30;;;;;;5008577;28;20049;-75
2022/09/03 00:40:55;;;;;;;4.13;1.08;;;18.00;54.50;;;;;;5008442;28;20130;-75
2022/09/03 00:43:24;;;;;;;2.97;1.13;;;17.90;54.80;;;;;;5008564;28;20432;-76
2022/09/03 00:46:06;;;;;;;3.38;1.35;;;17.90;54.50;;;;;;5012209;28;20068;-76
2022/09/03 00:48:51;;;;;;;2.85;1.00;;;17.90;54.70;;;;;;4995851;28;20378;-76
2022/09/03 00:51:43;;;;;;;2.25;0.93;;;17.80;54.70;;;;;;5012146;28;20042;-76
2022/09/03 00:54:27;;;;;;;3.92;1.00;;;17.80;54.70;;;;;;5011892;28;20547;-75
2022/09/03 00:57:07;;;;;;;1.90;0.80;;;17.70;54.90;;;;;;5012151;28;20046;-74
2022/09/03 01:00:00;;;;;;;2.67;0.95;;;17.60;55.20;;;;;;5011629;28;20042;-76
2022/09/03 01:02:48;;;;;;;2.78;0.90;;;17.60;55.30;;;;;;5011607;28;20042;-75
2022/09/03 01:05:33;;;;;;;1.92;0.98;;;17.60;55.40;;;;;;4995338;28;20053;-76
2022/09/03 01:08:11;;;;;;;1.95;0.65;;;17.50;55.60;;;;;;5011829;28;20086;-75
2022/09/03 01:10:47;;;;;;;1.25;0.90;;;17.50;55.50;;;;;;5011722;28;20049;-75
2022/09/03 01:13:53;;;;;;;2.88;0.98;;;17.50;55.60;;;;;;5011477;28;20045;-76
2022/09/03 01:16:22;;;;;;;1.45;0.98;;;17.50;55.70;;;;;;5023338;28;20050;-76
2022/09/03 01:19:24;;;;;;;9.45;1.40;;;17.40;55.70;;;;;;5011342;28;20521;-76
2022/09/03 01:22:19;;;;;;;2.55;0.93;;;17.50;55.60;;;;;;4994857;28;20092;-75
2022/09/03 01:25:10;;;;;;;3.08;0.90;;;17.40;55.80;;;;;;5012808;28;20081;-75
2022/09/03 01:27:58;;;;;;;3.90;1.10;;;17.40;55.70;;;;;;5011312;28;20121;-76
2022/09/03 01:30:25;;;;;;;2.42;1.10;;;17.30;55.80;;;;;;5011415;28;20129;-75
2022/09/03 01:33:11;;;;;;;3.28;1.00;;;17.30;55.80;;;;;;5011146;28;20553;-76
2022/09/03 01:35:46;;;;;;;3.17;0.90;;;17.30;55.90;;;;;;5010913;28;20300;-75
2022/09/03 01:38:33;;;;;;;2.38;0.70;;;17.30;56.00;;;;;;5011194;28;20056;-75
2022/09/03 01:44:05;;;;;;;1.33;0.80;;;17.20;56.20;;;;;;5011037;28;20046;-76
2022/09/03 01:46:38;;;;;;;4.38;0.90;;;17.20;56.20;;;;;;5011298;28;20125;-76
2022/09/03 01:49:15;;;;;;;5.68;0.80;;;17.20;56.30;;;;;;5010969;28;20151;-76
2022/09/03 01:51:42;;;;;;;2.53;1.00;;;17.30;56.20;;;;;;5011086;28;20128;-75
2022/09/03 01:54:36;;;;;;;4.53;0.90;;;17.30;56.40;;;;;;5010956;28;20046;-77
2022/09/03 01:57:21;;;;;;;5.53;0.95;;;17.30;56.30;;;;;;5010057;28;20052;-76
2022/09/03 02:00:06;;;;;;;2.97;0.90;;;17.30;56.30;;;;;;5011100;28;20042;-75
2022/09/03 02:02:34;;;;;;;14.65;1.33;;;17.30;56.10;;;;;;5010728;28;20512;-77
2022/09/03 02:05:10;;;;;;;1.70;0.80;;;17.30;56.30;;;;;;4994626;28;20046;-77
2022/09/03 02:07:47;;;;;;;4.65;1.00;;;17.30;56.30;;;;;;5011096;28;20077;-74
2022/09/03 02:10:21;;;;;;;3.67;1.00;;;17.20;56.40;;;;;;5010576;28;20041;-75
2022/09/03 02:12:52;;;;;;;1.57;0.90;;;17.20;56.60;;;;;;5010651;28;20410;-75
2022/09/03 02:15:21;;;;;;;3.63;1.05;;;17.20;56.60;;;;;;5010622;28;20052;-76
2022/09/03 02:17:49;;;;;;;1.80;1.02;;;17.20;56.50;;;;;;5010856;28;20038;-74
2022/09/03 02:20:19;;;;;;;4.15;1.10;;;17.10;56.60;;;;;;5010377;28;20046;-74
2022/09/03 02:22:47;;;;;;;2.78;1.08;;;17.10;56.50;;;;;;4994109;28;20061;-75
2022/09/03 02:25:13;;;;;;;4.43;1.02;;;17.10;56.40;;;;;;5010361;28;20049;-76
2022/09/03 02:27:39;;;;;;;3.50;1.10;;;17.10;56.50;;;;;;5010374;28;20041;-76
2022/09/03 02:30:06;;;;;;;2.70;0.88;;;17.10;56.40;;;;;;5010272;28;20041;-77
2022/09/03 02:32:32;;;;;;;3.72;0.80;;;17.10;56.50;;;;;;5010211;28;20049;-76
2022/09/03 02:34:58;;;;;;;3.15;0.70;;;17.10;56.50;;;;;;5010244;28;20137;-74
2022/09/03 02:37:24;;;;;;;1.85;1.15;;;17.10;56.70;;;;;;5010493;28;20045;-75
2022/09/03 02:39:52;;;;;;;1.75;1.20;;;17.20;56.80;;;;;;5010083;28;20048;-75
2022/09/03 02:42:19;;;;;;;3.10;1.10;;;17.20;57.10;;;;;;5010337;28;20049;-75
2022/09/03 02:44:49;;;;;;;2.97;1.33;;;17.20;57.40;;;;;;5010370;28;20371;-74
2022/09/03 02:47:15;;;;;;;4.13;0.90;;;17.10;57.60;;;;;;4993845;28;20049;-75
2022/09/03 02:49:41;;;;;;;1.98;0.77;;;17.10;57.60;;;;;;4993673;28;20048;-75
2022/09/03 02:52:08;;;;;;;1.70;0.90;;;17.00;57.70;;;;;;4994019;28;20046;-74
2022/09/03 02:54:38;;;;;;;4.43;0.98;;;17.00;57.90;;;;;;5009983;28;20099;-76
2022/09/03 02:57:08;;;;;;;2.20;0.85;;;17.00;58.00;;;;;;4993594;28;20038;-75
2022/09/03 02:59:35;;;;;;;3.33;0.98;;;17.00;58.10;;;;;;5010084;28;20101;-76
2022/09/03 03:02:01;;;;;;;1.98;1.00;;;17.00;58.20;;;;;;4993832;28;20057;-75
2022/09/03 03:04:29;;;;;;;2.15;1.10;;;16.90;58.30;;;;;;5009870;28;20053;-75
2022/09/03 03:06:55;;;;;;;3.88;0.98;;;16.90;58.40;;;;;;5009921;28;20385;-74
2022/09/03 03:09:21;;;;;;;3.00;1.08;;;16.90;58.30;;;;;;5009718;28;20038;-77
2022/09/03 03:11:49;;;;;;;2.47;0.80;;;16.90;58.40;;;;;;5009703;28;20042;-75
2022/09/03 03:14:15;;;;;;;2.00;0.98;;;16.90;58.50;;;;;;5009939;28;20041;-75
2022/09/03 03:16:41;;;;;;;1.52;0.85;;;16.80;58.50;;;;;;5009957;28;20394;-77
2022/09/03 03:19:07;;;;;;;3.05;0.90;;;16.80;58.30;;;;;;4993341;28;20037;-75
2022/09/03 03:21:32;;;;;;;2.25;0.90;;;16.70;58.40;;;;;;5009753;28;20041;-75
2022/09/03 03:24:00;;;;;;;2.53;0.95;;;16.80;58.40;;;;;;5009548;28;20398;-75
2022/09/03 03:26:26;;;;;;;2.88;1.05;;;16.60;58.70;;;;;;5009522;28;20078;-74
2022/09/03 03:28:56;;;;;;;1.90;0.95;;;16.60;58.70;;;;;;5009375;28;20473;-75
2022/09/03 03:31:22;;;;;;;3.60;1.08;;;16.60;58.70;;;;;;5009426;28;20042;-75
2022/09/03 03:33:56;;;;;;;3.83;1.15;;;16.50;58.90;;;;;;5009160;28;20073;-75
2022/09/03 03:36:23;;;;;;;1.88;0.85;;;16.50;59.00;;;;;;5009421;28;20053;-76
2022/09/03 03:38:53;;;;;;;1.73;0.90;;;16.50;59.00;;;;;;5009304;28;20102;-76
2022/09/03 03:41:21;;;;;;;3.20;1.55;;;16.50;58.90;;;;;;5009279;28;20085;-75
2022/09/03 03:43:47;;;;;;;4.40;0.90;;;16.50;59.40;;;;;;5009124;28;20042;-75
2022/09/03 03:46:13;;;;;;;2.15;0.98;;;16.50;59.30;;;;;;5009276;28;20038;-75
2022/09/03 03:48:40;;;;;;;1.60;0.93;;;16.40;59.30;;;;;;5009124;28;20495;-75
2022/09/03 03:51:07;;;;;;;1.92;1.02;;;16.40;59.30;;;;;;5009160;28;20594;-76
2022/09/03 03:53:37;;;;;;;2.75;0.68;;;16.40;59.30;;;;;;5009085;28;20066;-75
2022/09/03 03:56:05;;;;;;;1.38;0.98;;;16.30;59.50;;;;;;5009100;28;20037;-76
2022/09/03 03:58:32;;;;;;;1.73;0.80;;;16.30;59.70;;;;;;5008981;28;20132;-75
2022/09/03 04:01:06;;;;;;;4.80;1.02;;;16.30;59.80;;;;;;5009250;28;20041;-74
2022/09/03 04:03:33;;;;;;;1.20;0.90;;;16.30;59.90;;;;;;5008977;28;20042;-76
2022/09/03 04:06:01;;;;;;;2.97;1.10;;;16.30;59.80;;;;;;5008948;28;20041;-75
2022/09/03 04:08:27;;;;;;;3.95;1.13;;;16.30;59.80;;;;;;5009137;28;20049;-75
2022/09/03 04:10:57;;;;;;;2.80;1.10;;;16.30;59.90;;;;;;5008876;28;20049;-75
2022/09/03 04:13:23;;;;;;;2.80;0.98;;;16.30;59.90;;;;;;5008848;28;20050;-75
2022/09/03 04:15:49;;;;;;;1.30;0.70;;;16.20;60.00;;;;;;5008923;28;20050;-75
2022/09/03 04:18:14;;;;;;;3.00;1.02;;;16.20;60.00;;;;;;5008787;28;20125;-75
2022/09/03 04:20:40;;;;;;;2.72;0.95;;;16.20;60.20;;;;;;4996271;28;20102;-76
2022/09/03 04:23:06;;;;;;;3.67;1.00;;;16.10;60.10;;;;;;5012242;28;20042;-74
2022/09/03 04:25:32;;;;;;;5.40;1.30;;;16.10;60.30;;;;;;5012205;28;20048;-75
2022/09/03 04:27:59;;;;;;;2.45;0.95;;;16.10;60.20;;;;;;4995959;28;20113;-76
2022/09/03 04:30:26;;;;;;;3.63;0.90;;;16.10;60.30;;;;;;5012395;28;20103;-74
2022/09/03 04:32:52;;;;;;;2.30;1.20;;;16.10;60.20;;;;;;4995992;28;20081;-76
2022/09/03 04:35:28;;;;;;;2.00;0.90;;;16.00;60.30;;;;;;5011892;28;20093;-76
2022/09/03 04:37:56;;;;;;;0.82;0.80;;;16.10;60.30;;;;;;5012087;28;20056;-74
2022/09/03 04:40:21;;;;;;;2.85;1.08;;;16.10;60.30;;;;;;5011964;28;20054;-74
2022/09/03 04:42:47;;;;;;;4.15;1.10;;;16.10;60.20;;;;;;5011924;28;20069;-75
2022/09/03 04:45:17;;;;;;;3.53;0.80;;;16.10;60.20;;;;;;5011942;28;20067;-75
2022/09/03 04:47:45;;;;;;;2.38;0.80;;;16.10;60.30;;;;;;4996107;28;20118;-75
2022/09/03 04:50:12;;;;;;;4.32;1.13;;;16.10;60.50;;;;;;4995867;28;20508;-76
2022/09/03 04:52:38;;;;;;;1.70;0.98;;;16.10;60.40;;;;;;4995473;28;20046;-75
2022/09/03 04:55:04;;;;;;;2.55;0.85;;;16.10;60.40;;;;;;4979391;28;20042;-75
2022/09/03 04:57:34;;;;;;;2.25;0.80;;;16.20;60.40;;;;;;4995135;28;20046;-74
2022/09/03 05:00:00;;;;;;;1.40;0.90;;;16.10;60.50;;;;;;4996172;28;20054;-76
2022/09/03 05:02:25;;;;;;;1.92;1.00;;;16.10;60.50;;;;;;5011739;28;20450;-76
2022/09/03 05:04:52;;;;;;;5.68;1.00;;;16.10;60.50;;;;;;5011893;28;20467;-76
2022/09/03 05:07:19;;;;;;;1.20;0.73;;;16.10;60.60;;;;;;5011862;28;20482;-75
2022/09/03 05:09:45;;;;;;;5.43;1.10;;;16.10;60.70;;;;;;5011683;28;20046;-76
2022/09/03 05:12:11;;;;;;;1.75;1.00;;;16.10;60.80;;;;;;5011638;28;20374;-76
2022/09/03 05:14:37;;;;;;;1.40;1.10;;;16.10;60.80;;;;;;5011526;28;20095;-76
2022/09/03 05:17:03;;;;;;;1.85;0.88;;;16.10;60.80;;;;;;4995546;28;20041;-74
2022/09/03 05:19:30;;;;;;;4.43;1.20;;;16.10;60.80;;;;;;5011631;28;20041;-76
2022/09/03 05:21:55;;;;;;;3.90;1.10;;;16.20;60.80;;;;;;5011329;28;20042;-76
2022/09/03 05:24:21;;;;;;;2.67;1.00;;;16.20;60.70;;;;;;5011582;28;20071;-75
2022/09/03 05:26:47;;;;;;;4.38;1.20;;;16.20;60.80;;;;;;5011563;28;20482;-75
2022/09/03 05:29:14;;;;;;;3.42;0.88;;;16.20;60.80;;;;;;5011247;28;20094;-75
2022/09/03 05:31:40;;;;;;;3.78;1.40;;;16.20;60.70;;;;;;5010348;28;20045;-75
2022/09/03 05:34:07;;;;;;;2.60;0.88;;;16.20;60.70;;;;;;5011052;28;20414;-75
2022/09/03 05:36:36;;;;;;;2.88;1.08;;;16.20;60.80;;;;;;5011204;28;20050;-75
2022/09/03 05:39:02;;;;;;;1.75;1.10;;;16.10;60.90;;;;;;5010992;28;20049;-76
2022/09/03 05:41:28;;;;;;;3.90;0.90;;;16.00;61.00;;;;;;5011381;28;20062;-74
2022/09/03 05:43:55;;;;;;;3.00;1.00;;;16.10;60.90;;;;;;5011008;28;20050;-74
2022/09/03 05:46:30;;;;;;;3.40;1.52;;;16.00;61.00;;;;;;5011270;28;20038;-74
2022/09/03 05:49:00;;;;;;;3.55;0.90;;;16.10;61.10;;;;;;5010896;28;20046;-75
2022/09/03 05:51:27;;;;;;;1.63;0.90;;;16.00;61.00;;;;;;5011004;28;20107;-74
2022/09/03 05:53:54;;;;;;;2.13;0.95;;;16.00;61.40;;;;;;4994542;28;20212;-76
2022/09/03 05:56:22;;;;;;;2.53;1.23;;;16.00;61.30;;;;;;5010843;28;20045;-76
2022/09/03 05:58:53;;;;;;;2.90;1.13;;;16.00;61.30;;;;;;4994354;28;20038;-75
2022/09/03 06:01:25;;;;;;;3.28;1.30;;;15.90;61.60;;;;;;5010791;28;20512;-73
2022/09/03 06:03:59;;;;;;;4.25;1.30;;;15.90;61.80;;;;;;5010614;28;20046;-76
2022/09/03 06:06:25;;;;;;;;;;;15.90;61.80;;;;;;5011120;28;20486;-77
2022/09/03 06:08:57;;;;;;;2.50;1.45;;;15.90;62.10;;;;;;5010890;28;19917;-76
2022/09/03 06:11:26;;;;;;;3.70;1.10;;;15.70;62.10;;;;;;5010658;28;20046;-75
2022/09/03 06:13:54;;;;;;;2.38;1.17;;;15.80;62.10;;;;;;5010884;28;20050;-75
2022/09/03 06:16:20;;;;;;;1.95;1.75;;;15.80;62.30;;;;;;5011867;28;20046;-75
2022/09/03 06:18:46;;;;;;;3.17;1.40;;;15.90;62.30;;;;;;5010453;28;20061;-76
2022/09/03 06:21:13;;;;;;;2.22;1.02;;;15.80;62.40;;;;;;5010518;28;20034;-77
2022/09/03 06:23:39;;;;;;;3.28;1.20;;;15.80;62.50;;;;;;5010339;28;20516;-75
2022/09/03 06:26:08;;;;;;;1.77;1.10;;;15.80;62.50;;;;;;5010444;28;20046;-76
2022/09/03 06:28:36;;;;;;;3.53;1.10;;;15.90;62.60;;;;;;4994278;28;20134;-76
2022/09/03 06:31:04;;;;;;;2.95;1.10;;;15.90;62.60;;;;;;5010234;28;20045;-76
2022/09/03 06:33:33;;;;;;;3.65;1.42;;;16.00;62.60;;;;;;5010257;28;20508;-75
2022/09/03 06:36:00;;;;;;;2.85;1.50;;;16.00;62.70;;;;;;5010517;28;20054;-75
2022/09/03 06:38:27;;;;;;;5.53;1.73;;;16.10;62.60;;;;;;5010254;28;20042;-76
2022/09/03 06:40:54;;;;;;;5.00;1.23;;;16.10;62.20;;;;;;4993856;28;20171;-76
2022/09/03 06:43:22;;;;;;;2.42;1.17;;;16.20;62.10;;;;;;5009803;28;20462;-76
2022/09/03 06:45:57;;;;;;;2.30;1.33;;;16.20;62.00;;;;;;5010035;28;20121;-76
2022/09/03 06:48:23;;;;;;;2.10;1.20;;;16.40;62.00;;;;;;5010360;28;20073;-76
2022/09/03 06:50:55;;;;;;;4.68;1.48;;;16.40;61.80;;;;;;5010280;28;20499;-76
2022/09/03 06:53:23;;;;;;;2.22;1.27;;;16.50;61.60;;;;;;4993710;28;20098;-76
2022/09/03 06:55:53;;;;;;;2.63;2.10;;;16.50;61.50;;;;;;5009946;28;20052;-76
2022/09/03 06:58:20;;;;;;;4.63;1.67;;;16.70;61.00;;;;;;5010132;28;20401;-76
2022/09/03 07:00:47;;;;;;;1.90;1.08;;;16.70;60.80;;;;;;5009827;28;20056;-75
2022/09/03 07:03:13;;;;;;;4.57;1.23;;;16.80;60.70;;;;;;4977550;28;20094;-75
2022/09/03 07:05:39;;;;;;;2.55;1.30;;;16.90;60.70;;;;;;5009830;28;20042;-76
2022/09/03 07:08:04;;;;;;;1.83;1.00;;;17.00;60.60;;;;;;5009883;28;20046;-77
2022/09/03 07:10:30;;;;;;;4.35;1.38;;;17.10;60.40;;;;;;5009958;28;20048;-76
2022/09/03 07:12:56;;;;;;;6.63;1.33;;;17.20;60.20;;;;;;4993439;28;20053;-74
2022/09/03 07:15:21;;;;;;;4.35;1.08;;;17.20;60.10;;;;;;4993547;28;20046;-75
2022/09/03 07:17:49;;;;;;;2.95;1.42;;;17.30;59.70;;;;;;5009658;28;20090;-76
2022/09/03 07:20:14;;;;;;;6.78;1.50;;;17.40;59.50;;;;;;5009562;28;20510;-78
2022/09/03 07:22:40;;;;;;;3.00;1.45;;;17.50;59.00;;;;;;4993209;28;20050;-78
2022/09/03 07:25:06;;;;;;;1.70;1.08;;;17.50;58.80;;;;;;4993279;28;20069;-77
2022/09/03 07:27:34;;;;;;;3.10;1.40;;;17.50;58.50;;;;;;4993152;28;20084;-76
2022/09/03 07:29:59;;;;;;;4.45;1.50;;;17.60;58.70;;;;;;5009657;28;20367;-77
2022/09/03 07:32:26;;;;;;;5.18;1.60;;;17.60;58.30;;;;;;5009612;28;20057;-76
2022/09/03 07:34:56;;;;;;;2.55;1.60;;;17.80;58.50;;;;;;5009324;28;20544;-77
2022/09/03 07:37:22;;;;;;;3.55;1.35;;;17.90;58.70;;;;;;4977819;28;20141;-75
2022/09/03 07:39:48;;;;;;;2.47;1.23;;;18.00;58.30;;;;;;5061468;28;20077;-76
2022/09/03 07:42:14;;;;;;;3.83;1.30;;;18.00;58.30;;;;;;5009132;28;20038;-75
2022/09/03 07:44:39;;;;;;;6.53;1.58;;;18.10;58.00;;;;;;5009249;28;20038;-76
2022/09/03 07:47:05;;;;;;;3.13;1.38;;;18.20;58.10;;;;;;5009475;28;20038;-75
2022/09/03 07:49:31;;;;;;;3.88;1.05;;;18.30;57.50;;;;;;5009016;28;20052;-75
2022/09/03 07:51:57;;;;;;;2.08;1.40;;;18.30;56.50;;;;;;5009175;28;20038;-76
2022/09/03 07:54:24;;;;;;;2.85;1.60;;;18.40;56.70;;;;;;4991945;28;20042;-76
2022/09/03 07:56:51;;;;;;;4.50;1.83;;;18.50;56.80;;;;;;5009109;28;20125;-75
2022/09/03 07:59:16;;;;;;;3.40;1.30;;;18.60;57.20;;;;;;5009229;28;20128;-74
2022/09/03 08:01:42;;;;;;;2.42;1.42;;;18.60;56.80;;;;;;5009228;28;20476;-76
2022/09/03 08:04:09;;;;;;;2.88;1.40;;;18.70;56.70;;;;;;5008899;28;20050;-75
2022/09/03 08:06:35;;;;;;;2.58;1.33;;;18.80;56.20;;;;;;5009219;28;20133;-76
2022/09/03 08:09:04;;;;;;;5.45;1.75;;;18.90;55.90;;;;;;5008871;28;20042;-74
2022/09/03 08:11:30;;;;;;;4.10;1.30;;;18.90;56.30;;;;;;5008940;28;20042;-76
2022/09/03 08:14:05;;;;;;;2.15;1.50;;;19.00;56.30;;;;;;5008964;28;20042;-76
2022/09/03 08:16:40;;;;;;;5.70;1.48;;;19.10;55.70;;;;;;4992575;28;20038;-77
2022/09/03 08:19:06;;;;;;;3.78;1.48;;;19.30;55.80;;;;;;5008703;28;20067;-78
2022/09/03 08:21:32;;;;;;;5.07;2.33;;;19.30;54.20;;;;;;5009074;28;20041;-75
2022/09/03 08:24:04;;;;;;;4.55;1.35;;;19.40;55.00;;;;;;5008698;28;20049;-75
2022/09/03 08:26:35;;;;;;;2.85;1.30;;;19.40;55.10;;;;;;5008867;28;20038;-76
2022/09/03 08:29:02;;;;;;;3.42;1.35;;;19.50;55.30;;;;;;5008702;28;20490;-75
2022/09/03 08:31:28;;;;;;;3.40;1.30;;;19.60;54.70;;;;;;5008750;28;20057;-75
2022/09/03 08:33:56;;;;;;;6.72;1.55;;;19.70;54.70;;;;;;5008414;28;20152;-75
2022/09/03 08:36:29;;;;;;;2.95;1.30;;;19.80;54.70;;;;;;5008458;28;20058;-74
2022/09/03 08:39:03;;;;;;;3.30;1.42;;;19.90;54.40;;;;;;5008696;28;20063;-75
2022/09/03 08:41:36;;;;;;;2.57;1.40;;;20.00;54.50;;;;;;4993644;28;20473;-77
2022/09/03 08:44:10;;;;;;;3.25;1.40;;;20.20;54.40;;;;;;5008534;28;20114;-75
2022/09/03 08:47:06;;;;;;;2.00;1.48;;;20.30;53.90;;;;;;5008447;28;20042;-74
2022/09/03 08:49:42;;;;;;;3.35;1.40;;;20.40;52.50;;;;;;5008448;28;20053;-76
2022/09/03 08:52:17;;;;;;;4.65;1.40;;;20.50;53.20;;;;;;5008510;28;20547;-76
2022/09/03 08:54:43;;;;;;;4.57;1.40;;;20.60;52.20;;;;;;5008498;28;20114;-73
2022/09/03 08:57:11;;;;;;;3.45;1.40;;;20.70;52.50;;;;;;4992531;28;20112;-77
2022/09/03 08:59:36;;;;;;;2.28;1.58;;;20.80;52.30;;;;;;5008304;28;20557;-76
2022/09/03 09:02:37;;;;;;;2.95;1.40;;;20.90;51.90;;;;;;5008609;28;20128;-75
2022/09/03 09:05:07;;;;;;;2.13;1.23;;;20.90;50.80;;;;;;5010466;28;20444;-76
2022/09/03 09:07:45;;;;;;;6.28;1.42;;;21.00;51.10;;;;;;5011994;28;20431;-74
2022/09/03 09:10:29;;;;;;;5.13;1.95;;;21.00;50.40;;;;;;4995343;28;20090;-73
2022/09/03 09:13:26;;;;;;;4.15;1.33;;;21.20;51.10;;;;;;4995515;28;20115;-75
2022/09/03 09:16:31;;;;;;;3.88;1.42;;;21.30;50.50;;;;;;5011568;28;20510;-75
2022/09/03 09:19:25;;;;;;;2.88;1.77;;;21.40;51.10;;;;;;5011569;28;20490;-75
2022/09/03 09:21:59;;;;;;;4.53;1.42;;;21.60;50.80;;;;;;5011651;28;20525;-74
2022/09/03 09:24:27;;;;;;;5.18;1.48;;;21.80;51.70;;;;;;5011387;28;20050;-75
2022/09/03 09:27:01;;;;;;;2.13;1.10;;;22.00;49.90;;;;;;5011519;28;20064;-75
2022/09/03 09:29:34;;;;;;;6.53;1.52;;;22.00;50.50;;;;;;5011725;28;20042;-75
2022/09/03 09:32:00;;;;;;;3.58;1.33;;;22.20;50.00;;;;;;4995167;28;20046;-75
2022/09/03 09:34:26;;;;;;;2.10;1.40;;;22.30;49.20;;;;;;5011145;28;20076;-77
2022/09/03 09:36:54;;;;;;;3.08;1.20;;;22.40;48.50;;;;;;5011218;28;20519;-78
2022/09/03 09:39:21;;;;;;;3.15;1.27;;;22.40;48.70;;;;;;5010999;28;20038;-79
2022/09/03 09:42:07;;;;;;;6.97;1.67;;;22.50;48.90;;;;;;5011202;28;20576;-79
2022/09/03 09:44:33;;;;;;;4.55;1.52;;;22.60;48.90;;;;;;5010593;28;20041;-78
2022/09/03 09:47:11;;;;;;;5.25;1.23;;;22.60;49.40;;;;;;5010960;28;20049;-78
2022/09/03 09:49:50;;;;;;;4.18;1.50;;;22.80;49.30;;;;;;5010855;28;20057;-78
2022/09/03 09:52:17;;;;;;;2.28;1.30;;;22.90;49.30;;;;;;5011133;28;20064;-78
2022/09/03 09:54:45;;;;;;;6.00;2.17;;;23.00;49.00;;;;;;5011039;28;20046;-78
2022/09/03 09:57:17;;;;;;;2.85;1.35;;;23.00;48.00;;;;;;5010885;28;20493;-79
2022/09/03 09:59:45;;;;;;;4.88;1.52;;;23.00;46.80;;;;;;4994364;28;20042;-78
2022/09/03 10:02:25;;;;;;;4.22;1.75;;;23.00;47.00;;;;;;5010975;28;20046;-79
2022/09/03 10:04:50;;;;;;;3.90;1.30;;;23.10;47.30;;;;;;5010836;28;20489;-79
2022/09/03 10:07:24;;;;;;;4.22;1.50;;;23.30;47.90;;;;;;5011018;28;20048;-78
2022/09/03 10:10:13;;;;;;;7.35;1.40;;;23.40;47.40;;;;;;5010835;28;20397;-78
2022/09/03 10:12:58;;;;;;;6.93;1.50;;;23.60;47.50;;;;;;5010786;28;20048;-78
2022/09/03 10:15:43;;;;;;;2.80;1.40;;;23.80;48.00;;;;;;5010920;28;20111;-78
2022/09/03 10:18:27;;;;;;;5.40;1.20;;;23.90;45.70;;;;;;5009886;28;20050;-78
2022/09/03 10:21:09;;;;;;;3.88;1.40;;;24.10;44.40;;;;;;5010685;28;20578;-79
2022/09/03 10:24:21;;;;;;;3.15;1.50;;;24.00;45.20;;;;;;5010418;28;20042;-79
2022/09/03 10:26:47;;;;;;;6.63;2.17;;;24.10;44.00;;;;;;5010801;28;20045;-80
2022/09/03 10:29:22;;;;;;;2.63;1.17;;;24.30;45.60;;;;;;4994130;28;20538;-79
2022/09/03 10:32:05;;;;;;;3.10;1.27;;;24.30;43.90;;;;;;4994261;28;20073;-76
2022/09/03 10:34:35;;;;;;;7.55;1.27;;;24.40;44.50;;;;;;5010225;28;20053;-75
2022/09/03 10:37:12;;;;;;;4.65;1.30;;;24.60;44.90;;;;;;5010266;28;20053;-76
2022/09/03 10:40:12;;;;;;;4.85;1.40;;;24.80;43.30;;;;;;4993451;28;20080;-76
2022/09/03 10:42:48;;;;;;;4.45;1.42;;;25.00;43.70;;;;;;5010214;28;20046;-77
2022/09/03 10:45:19;;;;;;;6.28;1.20;;;25.20;44.40;;;;;;5010179;28;20041;-75
2022/09/03 10:47:54;;;;;;;4.40;1.58;;;25.40;43.70;;;;;;5010570;28;20045;-75
2022/09/03 10:50:25;;;;;;;5.32;1.73;;;25.50;42.40;;;;;;5010284;28;20049;-76
2022/09/03 10:53:20;;;;;;;3.30;1.30;;;25.60;42.80;;;;;;5010184;28;20041;-76
2022/09/03 10:56:12;;;;;;;3.97;1.05;;;25.70;43.30;;;;;;5010198;28;20121;-76
2022/09/03 10:59:02;;;;;;;1.73;1.05;;;25.90;41.80;;;;;;4993826;28;20060;-77
2022/09/03 11:01:48;;;;;;;3.55;1.20;;;26.00;41.80;;;;;;5010098;28;20045;-78
2022/09/03 11:04:39;;;;;;;4.57;1.17;;;26.00;41.80;;;;;;5009873;28;20049;-79
2022/09/03 11:07:11;;;;;;;6.03;1.50;;;26.20;41.70;;;;;;4995516;28;20040;-75
2022/09/03 11:09:56;;;;;;;3.50;1.20;;;26.30;40.90;;;;;;5010125;28;20049;-76
2022/09/03 11:12:28;;;;;;;5.97;1.30;;;26.40;40.60;;;;;;5008086;28;20048;-76
2022/09/03 11:15:04;;;;;;;9.10;1.33;;;26.30;39.20;;;;;;5009219;28;20042;-77
2022/09/03 11:17:38;;;;;;;5.53;1.20;;;26.30;39.90;;;;;;5007128;28;20516;-77
2022/09/03 11:20:20;;;;;;;2.38;1.08;;;26.50;40.50;;;;;;5009669;28;20046;-77
2022/09/03 11:22:48;;;;;;;4.03;1.08;;;26.60;38.80;;;;;;4992988;28;20034;-75
2022/09/03 11:25:18;;;;;;;3.30;1.00;;;26.70;39.00;;;;;;4993164;28;20045;-76
2022/09/03 11:28:33;;;;;;;4.57;1.38;;;26.80;38.70;;;;;;5009201;28;20077;-76
2022/09/03 11:31:35;;;;;;;8.60;1.50;;;26.90;38.30;;;;;;5006827;28;20050;-76
2022/09/03 11:34:25;;;;;;;3.65;1.13;;;26.90;37.20;;;;;;5009418;28;20494;-77
2022/09/03 11:37:03;;;;;;;3.22;1.00;;;27.10;37.20;;;;;;5009313;28;20058;-75
2022/09/03 11:39:35;;;;;;;4.70;1.15;;;27.30;36.60;;;;;;4993229;28;20054;-75
2022/09/03 11:42:20;;;;;;;3.13;1.10;;;27.30;36.90;;;;;;5007587;28;20126;-76
2022/09/03 11:44:50;;;;;;;2.05;1.05;;;27.40;36.50;;;;;;4992699;28;20087;-76
2022/09/03 11:47:38;;;;;;;4.88;1.00;;;27.40;36.90;;;;;;5009264;28;20068;-77
2022/09/03 11:50:24;;;;;;;3.53;1.10;;;27.60;34.90;;;;;;5038794;28;20043;-76
2022/09/03 11:52:55;;;;;;;4.45;1.20;;;27.70;34.80;;;;;;5008404;28;20096;-77
2022/09/03 11:55:32;;;;;;;2.05;1.05;;;27.90;35.70;;;;;;5008990;28;20543;-77
2022/09/03 11:58:11;;;;;;;2.33;1.33;;;27.90;35.20;;;;;;5009446;28;20041;-78
2022/09/03 12:00:38;;;;;;;4.25;1.30;;;27.90;34.90;;;;;;5008432;28;20038;-77
2022/09/03 12:03:04;;;;;;;4.10;1.00;;;27.90;34.10;;;;;;4992234;28;20045;-77
2022/09/03 12:05:43;;;;;;;2.80;1.35;;;27.90;34.50;;;;;;4993051;28;20052;-76
2022/09/03 12:08:46;;;;;;;2.70;1.27;;;28.00;34.60;;;;;;5008766;28;20034;-76
2022/09/03 12:11:44;;;;;;;3.30;1.20;;;28.00;33.20;;;;;;4992396;28;20041;-76
2022/09/03 12:14:19;;;;;;;3.88;1.08;;;28.20;32.70;;;;;;5008796;28;20049;-77
2022/09/03 12:17:07;;;;;;;6.25;1.88;;;28.30;33.50;;;;;;5009202;28;20038;-75
2022/09/03 12:19:36;;;;;;;5.00;1.60;;;28.50;35.70;;;;;;5008891;28;20046;-75
2022/09/03 12:22:03;;;;;;;2.97;1.15;;;28.80;34.20;;;;;;4992736;28;20046;-76
2022/09/03 12:24:34;;;;;;;1.58;1.10;;;28.90;33.60;;;;;;4992714;28;20053;-75
2022/09/03 12:27:01;;;;;;;1.92;1.00;;;28.90;32.20;;;;;;4992644;28;20083;-76
2022/09/03 12:29:28;;;;;;;2.75;1.10;;;28.80;32.20;;;;;;5008704;28;20053;-76
2022/09/03 12:31:55;;;;;;;2.08;1.17;;;28.90;32.50;;;;;;4992619;28;20393;-75
2022/09/03 12:34:22;;;;;;;3.90;0.93;;;28.90;33.00;;;;;;5008671;28;20123;-76
2022/09/03 12:36:51;;;;;;;2.40;0.90;;;29.10;32.60;;;;;;5008738;28;20057;-75
2022/09/03 12:39:28;;;;;;;3.45;1.02;;;29.10;33.00;;;;;;4992625;28;20042;-76
2022/09/03 12:42:07;;;;;;;5.95;0.90;;;29.10;32.00;;;;;;4995840;28;20570;-76
2022/09/03 12:44:35;;;;;;;3.80;1.13;;;29.10;31.30;;;;;;5012356;28;20101;-76
2022/09/03 12:47:11;;;;;;;3.38;1.20;;;29.10;31.10;;;;;;5012266;28;20366;-76
2022/09/03 12:49:40;;;;;;;1.40;1.00;;;29.10;31.00;;;;;;5011968;28;20042;-75
2022/09/03 12:52:32;;;;;;;2.88;0.98;;;29.10;31.80;;;;;;5012086;28;20042;-75
2022/09/03 12:55:00;;;;;;;1.50;1.10;;;29.20;31.30;;;;;;5012332;28;20188;-77
2022/09/03 12:57:32;;;;;;;2.42;1.17;;;29.10;31.50;;;;;;5011866;28;20044;-76
2022/09/03 13:00:03;;;;;;;2.40;1.48;;;29.10;31.30;;;;;;5011776;28;20034;-78
2022/09/03 13:02:46;;;;;;;2.03;1.02;;;29.00;31.20;;;;;;5044686;27;20443;-77
2022/09/03 13:05:17;;;;;;;1.98;1.15;;;29.30;31.00;;;;;;5012015;28;20046;-77
2022/09/03 13:07:51;;;;;;;2.70;1.00;;;29.40;30.60;;;;;;5011717;28;20046;-77
2022/09/03 13:10:36;;;;;;;1.50;1.00;;;29.70;31.00;;;;;;5011826;28;20046;-77
2022/09/03 13:13:25;;;;;;;3.00;1.30;;;29.80;30.70;;;;;;5011913;28;20077;-76
2022/09/03 13:16:03;;;;;;;2.08;0.80;;;29.90;30.70;;;;;;5011885;28;20129;-77
2022/09/03 13:19:04;;;;;;;2.42;1.20;;;29.90;29.70;;;;;;5011817;28;20390;-77
2022/09/03 13:21:51;;;;;;;2.83;1.23;;;29.90;29.60;;;;;;5011578;28;20140;-77